Oldham, SD (57051)

9:14 PM CDT on October 01, 2014 (GMT -0500)
Brown Farm LTD. | Change Station
CLOSE
Current Station
Personal Weather Station
Location: Arlington, SD
Elevation: 1808 ft
Nearby Weather Stations

Elev 1808 ft 44.38 °N, 97.08 °W | Updated 1 second ago

Clear
Clear
59.6 °F
Feels Like 59.6 °F
N
5.0
Wind Variable Wind from NE
Gusts 5.0 mph

Today
High -- | Low -- °F
--% Chance of Precip.
Yesterday
High -- | Low -- °F
Precip. -- in
7:27 AM 7:09 PM
First Quarter, 53% visible
Pressure 29.82 in
Visibility 10.0 miles
Clouds Clear
Dew Point 52 °F
Humidity 76%
Rainfall 0.00 in
Snow Depth 0 in , 1 in
UV 0.0 out of 12
Pollen 4.30 out of 12
Air Quality Not available.
Flu Activity Not available.
METAR KMDS 020155Z AUTO 34005KT 10SM CLR 12/11 A2982 RMK AO2

More Conditions Fewer Conditions

Pressure 29.82 in
Visibility 10.0 miles
Clouds Clear
Dew Point 52 °F
Humidity 76%
Rainfall 0.00 in
Snow Depth 0 in , 1 in
UV 0.0 out of 12
Pollen 4.30 out of 12
Air Quality Not available.
Flu Activity Not available.
METAR KMDS 020155Z AUTO 34005KT 10SM CLR 12/11 A2982 RMK AO2

More Conditions Fewer Conditions

10-Day Weather Forecast

Almanac

Astronomy

Oct. 01, 2014 Rise Set
Actual Time 7:27 AM CDT 7:09 PM CDT
Civil Twilight 6:58 AM CDT 7:38 PM CDT
Nautical Twilight 6:24 AM CDT 8:12 PM CDT
Astronomical Twilight 5:50 AM CDT 8:46 PM CDT
Moon 2:38 PM CDT (10/1) No Moon Set
Length of Visible Light 12h 40m
Length of Day
11h 42m
Tomorrow will be 3m 1s shorter.
First Quarter, 53% of the Moon is Illuminated
Today
First Quarter
Oct 8
Full
Oct 15
Last Quarter
Oct 23
New
Oct 30
First Quarter

Today's Extremes

State Highs State Lows

Community

WunderPhotos

Upload Photos

1,758,137 photos uploaded!

WunderBlogs® & News

Nearby

Snow Depth

Station Depth Elevation
North Rapid Creek 0 in 6130 ft
Blind Park 1 in 6890 ft

Earthquake Activity

City Distance Mag. Time & Date
No recent earthquake activity has been reported nearby.
Minimum magnitude displayed is 2.5.

Coastal Water Temperatures

Place Temperature
No Stations Reporting

Nearby Weather Stations